sensor_id;sensor_type;location;lat;lon;timestamp;temperature;humidity
2409;DHT22;8463;48.094;7.970;2023-11-21T00:02:21;9.10;1.00
2409;DHT22;8463;48.094;7.970;2023-11-21T00:04:48;9.20;1.00
2409;DHT22;8463;48.094;7.970;2023-11-21T00:07:14;9.20;1.00
2409;DHT22;8463;48.094;7.970;2023-11-21T00:09:40;9.20;1.00
2409;DHT22;8463;48.094;7.970;2023-11-21T00:12:07;9.20;1.00
2409;DHT22;8463;48.094;7.970;2023-11-21T00:14:38;9.20;1.00
2409;DHT22;8463;48.094;7.970;2023-11-21T00:17:05;9.20;1.00
2409;DHT22;8463;48.094;7.970;2023-11-21T00:19:31;9.20;1.00
2409;DHT22;8463;48.094;7.970;2023-11-21T00:21:57;9.20;1.00
2409;DHT22;8463;48.094;7.970;2023-11-21T00:24:23;9.20;1.00
2409;DHT22;8463;48.094;7.970;2023-11-21T00:26:50;9.20;1.00
2409;DHT22;8463;48.094;7.970;2023-11-21T00:31:44;9.20;1.00
2409;DHT22;8463;48.094;7.970;2023-11-21T00:34:12;9.20;1.00
2409;DHT22;8463;48.094;7.970;2023-11-21T00:36:37;9.20;1.00
2409;DHT22;8463;48.094;7.970;2023-11-21T00:39:03;9.20;1.00
2409;DHT22;8463;48.094;7.970;2023-11-21T00:41:31;9.20;1.00
2409;DHT22;8463;48.094;7.970;2023-11-21T00:46:24;9.10;1.00
2409;DHT22;8463;48.094;7.970;2023-11-21T00:48:52;9.20;1.00
2409;DHT22;8463;48.094;7.970;2023-11-21T00:51:19;9.20;1.00
2409;DHT22;8463;48.094;7.970;2023-11-21T00:56:12;9.20;1.00
2409;DHT22;8463;48.094;7.970;2023-11-21T00:58:37;9.00;1.00
2409;DHT22;8463;48.094;7.970;2023-11-21T01:01:03;9.20;1.00
2409;DHT22;8463;48.094;7.970;2023-11-21T01:03:29;9.10;1.00
2409;DHT22;8463;48.094;7.970;2023-11-21T01:08:21;9.20;1.00
2409;DHT22;8463;48.094;7.970;2023-11-21T01:10:47;9.20;1.00
2409;DHT22;8463;48.094;7.970;2023-11-21T01:13:13;9.20;1.00
2409;DHT22;8463;48.094;7.970;2023-11-21T01:15:40;9.20;1.00
2409;DHT22;8463;48.094;7.970;2023-11-21T01:18:07;9.10;1.00
2409;DHT22;8463;48.094;7.970;2023-11-21T01:20:34;9.10;1.00
2409;DHT22;8463;48.094;7.970;2023-11-21T01:23:02;9.10;1.00
2409;DHT22;8463;48.094;7.970;2023-11-21T01:25:27;9.20;1.00
2409;DHT22;8463;48.094;7.970;2023-11-21T01:27:53;9.20;1.00
2409;DHT22;8463;48.094;7.970;2023-11-21T01:32:45;9.10;1.00
2409;DHT22;8463;48.094;7.970;2023-11-21T01:37:39;9.10;1.00
2409;DHT22;8463;48.094;7.970;2023-11-21T01:40:06;9.10;1.00
2409;DHT22;8463;48.094;7.970;2023-11-21T01:42:35;9.00;1.00
2409;DHT22;8463;48.094;7.970;2023-11-21T01:45:01;9.00;1.00
2409;DHT22;8463;48.094;7.970;2023-11-21T01:47:33;9.10;1.00
2409;DHT22;8463;48.094;7.970;2023-11-21T01:49:59;9.10;1.00
2409;DHT22;8463;48.094;7.970;2023-11-21T01:52:26;9.10;1.00
2409;DHT22;8463;48.094;7.970;2023-11-21T01:54:54;9.10;1.00
2409;DHT22;8463;48.094;7.970;2023-11-21T01:57:20;9.10;1.00
2409;DHT22;8463;48.094;7.970;2023-11-21T01:59:48;9.10;1.00
2409;DHT22;8463;48.094;7.970;2023-11-21T02:02:14;9.10;1.00
2409;DHT22;8463;48.094;7.970;2023-11-21T02:04:42;9.10;1.00
2409;DHT22;8463;48.094;7.970;2023-11-21T02:07:08;9.10;1.00
2409;DHT22;8463;48.094;7.970;2023-11-21T02:09:33;9.10;1.00
2409;DHT22;8463;48.094;7.970;2023-11-21T02:12:02;9.10;1.00
2409;DHT22;8463;48.094;7.970;2023-11-21T02:14:28;9.00;1.00
2409;DHT22;8463;48.094;7.970;2023-11-21T02:16:54;9.10;1.00
2409;DHT22;8463;48.094;7.970;2023-11-21T02:19:22;9.10;1.00
2409;DHT22;8463;48.094;7.970;2023-11-21T02:21:56;9.10;1.00
2409;DHT22;8463;48.094;7.970;2023-11-21T02:24:28;9.00;1.00
2409;DHT22;8463;48.094;7.970;2023-11-21T02:26:54;9.00;1.00
2409;DHT22;8463;48.094;7.970;2023-11-21T02:29:21;9.00;1.00
2409;DHT22;8463;48.094;7.970;2023-11-21T02:31:50;9.00;1.00
2409;DHT22;8463;48.094;7.970;2023-11-21T02:34:17;9.00;1.00
2409;DHT22;8463;48.094;7.970;2023-11-21T02:36:43;9.10;1.00
2409;DHT22;8463;48.094;7.970;2023-11-21T02:39:13;9.10;1.00
2409;DHT22;8463;48.094;7.970;2023-11-21T02:41:39;9.00;1.00
2409;DHT22;8463;48.094;7.970;2023-11-21T02:44:08;9.00;1.00
2409;DHT22;8463;48.094;7.970;2023-11-21T02:46:34;9.00;1.00
2409;DHT22;8463;48.094;7.970;2023-11-21T02:49:01;9.00;1.00
2409;DHT22;8463;48.094;7.970;2023-11-21T02:51:27;9.00;1.00
2409;DHT22;8463;48.094;7.970;2023-11-21T02:53:53;9.00;1.00
2409;DHT22;8463;48.094;7.970;2023-11-21T02:56:18;9.00;1.00
2409;DHT22;8463;48.094;7.970;2023-11-21T03:03:38;9.00;1.00
2409;DHT22;8463;48.094;7.970;2023-11-21T03:06:06;9.00;1.00
2409;DHT22;8463;48.094;7.970;2023-11-21T03:10:58;9.00;1.00
2409;DHT22;8463;48.094;7.970;2023-11-21T03:13:24;8.90;1.00
2409;DHT22;8463;48.094;7.970;2023-11-21T03:18:15;9.00;1.00
2409;DHT22;8463;48.094;7.970;2023-11-21T03:20:43;9.00;1.00
2409;DHT22;8463;48.094;7.970;2023-11-21T03:23:12;9.00;1.00
2409;DHT22;8463;48.094;7.970;2023-11-21T03:25:37;9.00;1.00
2409;DHT22;8463;48.094;7.970;2023-11-21T03:28:06;9.00;1.00
2409;DHT22;8463;48.094;7.970;2023-11-21T03:30:33;9.00;1.00
2409;DHT22;8463;48.094;7.970;2023-11-21T03:35:28;9.00;1.00
2409;DHT22;8463;48.094;7.970;2023-11-21T03:37:53;9.00;1.00
2409;DHT22;8463;48.094;7.970;2023-11-21T03:40:19;9.00;1.00
2409;DHT22;8463;48.094;7.970;2023-11-21T03:42:46;9.00;1.00
2409;DHT22;8463;48.094;7.970;2023-11-21T03:45:12;8.90;1.00
2409;DHT22;8463;48.094;7.970;2023-11-21T03:47:38;9.00;1.00
2409;DHT22;8463;48.094;7.970;2023-11-21T03:50:04;9.00;1.00
2409;DHT22;8463;48.094;7.970;2023-11-21T03:52:30;8.90;1.00
2409;DHT22;8463;48.094;7.970;2023-11-21T03:57:22;9.00;1.00
2409;DHT22;8463;48.094;7.970;2023-11-21T03:59:48;9.00;1.00
2409;DHT22;8463;48.094;7.970;2023-11-21T04:02:13;9.00;1.00
2409;DHT22;8463;48.094;7.970;2023-11-21T04:04:39;8.90;1.00
2409;DHT22;8463;48.094;7.970;2023-11-21T04:09:31;8.90;1.00
2409;DHT22;8463;48.094;7.970;2023-11-21T04:14:23;8.90;1.00
2409;DHT22;8463;48.094;7.970;2023-11-21T04:16:48;8.80;1.00
2409;DHT22;8463;48.094;7.970;2023-11-21T04:19:14;8.80;1.00
2409;DHT22;8463;48.094;7.970;2023-11-21T04:21:41;8.80;1.00
2409;DHT22;8463;48.094;7.970;2023-11-21T04:24:07;8.80;1.00
2409;DHT22;8463;48.094;7.970;2023-11-21T04:26:33;8.90;1.00
2409;DHT22;8463;48.094;7.970;2023-11-21T04:31:24;8.80;1.00
2409;DHT22;8463;48.094;7.970;2023-11-21T04:33:50;8.90;1.00
2409;DHT22;8463;48.094;7.970;2023-11-21T04:36:15;8.90;1.00
2409;DHT22;8463;48.094;7.970;2023-11-21T04:38:41;8.90;1.00
2409;DHT22;8463;48.094;7.970;2023-11-21T04:41:07;8.80;1.00
2409;DHT22;8463;48.094;7.970;2023-11-21T04:43:33;9.00;1.00
2409;DHT22;8463;48.094;7.970;2023-11-21T04:45:59;8.80;1.00
2409;DHT22;8463;48.094;7.970;2023-11-21T04:50:51;8.80;1.00
2409;DHT22;8463;48.094;7.970;2023-11-21T04:53:19;8.80;1.00
2409;DHT22;8463;48.094;7.970;2023-11-21T04:55:45;8.80;1.00
2409;DHT22;8463;48.094;7.970;2023-11-21T05:00:37;8.70;1.00
2409;DHT22;8463;48.094;7.970;2023-11-21T05:03:04;8.70;1.00
2409;DHT22;8463;48.094;7.970;2023-11-21T05:05:31;8.70;1.00
2409;DHT22;8463;48.094;7.970;2023-11-21T05:07:57;8.70;1.00
2409;DHT22;8463;48.094;7.970;2023-11-21T05:10:23;8.60;1.00
2409;DHT22;8463;48.094;7.970;2023-11-21T05:15:17;8.60;1.00
2409;DHT22;8463;48.094;7.970;2023-11-21T05:17:44;8.60;1.00
2409;DHT22;8463;48.094;7.970;2023-11-21T05:20:11;8.50;1.00
2409;DHT22;8463;48.094;7.970;2023-11-21T05:25:04;8.50;1.00
2409;DHT22;8463;48.094;7.970;2023-11-21T05:27:30;8.50;1.00
2409;DHT22;8463;48.094;7.970;2023-11-21T05:29:56;8.50;1.00
2409;DHT22;8463;48.094;7.970;2023-11-21T05:32:25;8.50;1.00
2409;DHT22;8463;48.094;7.970;2023-11-21T05:34:52;8.40;1.00
2409;DHT22;8463;48.094;7.970;2023-11-21T05:37:18;8.20;1.00
2409;DHT22;8463;48.094;7.970;2023-11-21T05:39:43;8.20;1.00
2409;DHT22;8463;48.094;7.970;2023-11-21T05:42:09;8.20;1.00
2409;DHT22;8463;48.094;7.970;2023-11-21T05:44:41;8.10;1.00
2409;DHT22;8463;48.094;7.970;2023-11-21T05:47:07;8.20;1.00
2409;DHT22;8463;48.094;7.970;2023-11-21T05:52:00;8.20;1.00
2409;DHT22;8463;48.094;7.970;2023-11-21T05:54:26;8.20;1.00
2409;DHT22;8463;48.094;7.970;2023-11-21T05:56:52;8.20;1.00
2409;DHT22;8463;48.094;7.970;2023-11-21T06:01:45;8.20;1.00
2409;DHT22;8463;48.094;7.970;2023-11-21T06:04:12;8.20;1.00
2409;DHT22;8463;48.094;7.970;2023-11-21T06:06:38;8.20;1.00
2409;DHT22;8463;48.094;7.970;2023-11-21T06:09:04;8.20;1.00
2409;DHT22;8463;48.094;7.970;2023-11-21T06:11:31;8.20;1.00
2409;DHT22;8463;48.094;7.970;2023-11-21T06:13:57;8.20;1.00
2409;DHT22;8463;48.094;7.970;2023-11-21T06:16:23;8.20;1.00
2409;DHT22;8463;48.094;7.970;2023-11-21T06:18:49;8.30;1.00
2409;DHT22;8463;48.094;7.970;2023-11-21T06:21:17;8.30;1.00
2409;DHT22;8463;48.094;7.970;2023-11-21T06:23:43;8.30;1.00
2409;DHT22;8463;48.094;7.970;2023-11-21T06:26:09;8.30;1.00
2409;DHT22;8463;48.094;7.970;2023-11-21T06:28:35;8.30;1.00
2409;DHT22;8463;48.094;7.970;2023-11-21T06:31:04;8.40;1.00
2409;DHT22;8463;48.094;7.970;2023-11-21T06:33:33;8.40;1.00
2409;DHT22;8463;48.094;7.970;2023-11-21T06:35:59;8.50;1.00
2409;DHT22;8463;48.094;7.970;2023-11-21T06:38:28;8.60;1.00
2409;DHT22;8463;48.094;7.970;2023-11-21T06:40:56;9.00;1.00
2409;DHT22;8463;48.094;7.970;2023-11-21T06:43:23;9.40;1.00
2409;DHT22;8463;48.094;7.970;2023-11-21T06:45:49;9.00;1.00
2409;DHT22;8463;48.094;7.970;2023-11-21T06:48:15;8.80;1.00
2409;DHT22;8463;48.094;7.970;2023-11-21T06:50:40;8.60;1.00
2409;DHT22;8463;48.094;7.970;2023-11-21T06:53:07;8.60;1.00
2409;DHT22;8463;48.094;7.970;2023-11-21T06:55:33;8.60;1.00
2409;DHT22;8463;48.094;7.970;2023-11-21T06:58:00;8.40;1.00
2409;DHT22;8463;48.094;7.970;2023-11-21T07:00:25;8.60;1.00
2409;DHT22;8463;48.094;7.970;2023-11-21T07:02:53;8.50;1.00
2409;DHT22;8463;48.094;7.970;2023-11-21T07:05:21;8.50;1.00
2409;DHT22;8463;48.094;7.970;2023-11-21T07:07:47;8.50;1.00
2409;DHT22;8463;48.094;7.970;2023-11-21T07:10:13;8.60;1.00
2409;DHT22;8463;48.094;7.970;2023-11-21T07:12:40;8.70;1.00
2409;DHT22;8463;48.094;7.970;2023-11-21T07:15:06;8.70;1.00
2409;DHT22;8463;48.094;7.970;2023-11-21T07:17:35;8.70;1.00
2409;DHT22;8463;48.094;7.970;2023-11-21T07:20:01;8.70;1.00
2409;DHT22;8463;48.094;7.970;2023-11-21T07:22:27;8.70;1.00
2409;DHT22;8463;48.094;7.970;2023-11-21T07:24:52;8.60;1.00
2409;DHT22;8463;48.094;7.970;2023-11-21T07:27:18;8.50;1.00
2409;DHT22;8463;48.094;7.970;2023-11-21T07:29:46;8.30;1.00
2409;DHT22;8463;48.094;7.970;2023-11-21T07:32:13;8.40;1.00
2409;DHT22;8463;48.094;7.970;2023-11-21T07:34:40;8.30;1.00
2409;DHT22;8463;48.094;7.970;2023-11-21T07:37:07;8.30;1.00
2409;DHT22;8463;48.094;7.970;2023-11-21T07:39:35;8.10;1.00
2409;DHT22;8463;48.094;7.970;2023-11-21T07:42:01;8.20;1.00
2409;DHT22;8463;48.094;7.970;2023-11-21T07:44:28;8.20;1.00
2409;DHT22;8463;48.094;7.970;2023-11-21T07:46:54;8.30;1.00
2409;DHT22;8463;48.094;7.970;2023-11-21T07:49:23;8.40;1.00
2409;DHT22;8463;48.094;7.970;2023-11-21T07:51:49;8.30;1.00
2409;DHT22;8463;48.094;7.970;2023-11-21T07:54:14;8.40;1.00
2409;DHT22;8463;48.094;7.970;2023-11-21T07:56:41;8.50;1.00
2409;DHT22;8463;48.094;7.970;2023-11-21T07:59:06;8.60;1.00
2409;DHT22;8463;48.094;7.970;2023-11-21T08:01:32;8.60;1.00
2409;DHT22;8463;48.094;7.970;2023-11-21T08:04:00;8.60;1.00
2409;DHT22;8463;48.094;7.970;2023-11-21T08:06:30;8.70;1.00
2409;DHT22;8463;48.094;7.970;2023-11-21T08:08:56;8.80;1.00
2409;DHT22;8463;48.094;7.970;2023-11-21T08:11:22;8.60;1.00
2409;DHT22;8463;48.094;7.970;2023-11-21T08:13:48;8.60;1.00
2409;DHT22;8463;48.094;7.970;2023-11-21T08:16:14;8.60;1.00
2409;DHT22;8463;48.094;7.970;2023-11-21T08:18:39;8.60;1.00
2409;DHT22;8463;48.094;7.970;2023-11-21T08:21:06;8.60;1.00
2409;DHT22;8463;48.094;7.970;2023-11-21T08:23:33;8.60;1.00
2409;DHT22;8463;48.094;7.970;2023-11-21T08:25:59;8.50;1.00
2409;DHT22;8463;48.094;7.970;2023-11-21T08:28:25;8.50;1.00
2409;DHT22;8463;48.094;7.970;2023-11-21T08:30:52;8.40;1.00
2409;DHT22;8463;48.094;7.970;2023-11-21T08:35:45;8.40;1.00
2409;DHT22;8463;48.094;7.970;2023-11-21T08:38:12;8.40;1.00
2409;DHT22;8463;48.094;7.970;2023-11-21T08:43:04;8.50;1.00
2409;DHT22;8463;48.094;7.970;2023-11-21T08:45:33;8.50;1.00
2409;DHT22;8463;48.094;7.970;2023-11-21T08:48:02;8.50;1.00
2409;DHT22;8463;48.094;7.970;2023-11-21T08:50:28;8.50;1.00
2409;DHT22;8463;48.094;7.970;2023-11-21T08:52:54;8.60;1.00
2409;DHT22;8463;48.094;7.970;2023-11-21T08:55:22;8.70;1.00
2409;DHT22;8463;48.094;7.970;2023-11-21T08:57:47;8.70;1.00
2409;DHT22;8463;48.094;7.970;2023-11-21T09:00:13;8.70;1.00
2409;DHT22;8463;48.094;7.970;2023-11-21T09:02:42;8.70;1.00
2409;DHT22;8463;48.094;7.970;2023-11-21T09:05:09;8.80;1.00
2409;DHT22;8463;48.094;7.970;2023-11-21T09:07:35;8.90;1.00
2409;DHT22;8463;48.094;7.970;2023-11-21T09:12:27;8.80;1.00
2409;DHT22;8463;48.094;7.970;2023-11-21T09:14:53;8.80;1.00
2409;DHT22;8463;48.094;7.970;2023-11-21T09:17:19;8.90;1.00
2409;DHT22;8463;48.094;7.970;2023-11-21T09:22:15;9.00;1.00
2409;DHT22;8463;48.094;7.970;2023-11-21T09:27:07;9.10;1.00
2409;DHT22;8463;48.094;7.970;2023-11-21T09:29:33;9.10;1.00
2409;DHT22;8463;48.094;7.970;2023-11-21T09:34:25;9.20;1.00
2409;DHT22;8463;48.094;7.970;2023-11-21T09:36:51;9.10;1.00
2409;DHT22;8463;48.094;7.970;2023-11-21T09:41:55;9.10;1.00
2409;DHT22;8463;48.094;7.970;2023-11-21T09:44:46;9.10;1.00
2409;DHT22;8463;48.094;7.970;2023-11-21T09:47:15;9.20;1.00
2409;DHT22;8463;48.094;7.970;2023-11-21T09:49:47;9.20;1.00
2409;DHT22;8463;48.094;7.970;2023-11-21T09:52:18;9.20;1.00
2409;DHT22;8463;48.094;7.970;2023-11-21T09:54:46;9.30;1.00
2409;DHT22;8463;48.094;7.970;2023-11-21T09:57:13;9.30;1.00
2409;DHT22;8463;48.094;7.970;2023-11-21T09:59:40;9.20;1.00
2409;DHT22;8463;48.094;7.970;2023-11-21T10:02:07;9.20;1.00
2409;DHT22;8463;48.094;7.970;2023-11-21T10:04:36;9.20;1.00
2409;DHT22;8463;48.094;7.970;2023-11-21T10:09:29;9.10;1.00
2409;DHT22;8463;48.094;7.970;2023-11-21T10:11:56;9.10;1.00
2409;DHT22;8463;48.094;7.970;2023-11-21T10:14:26;9.10;1.00
2409;DHT22;8463;48.094;7.970;2023-11-21T10:16:55;9.20;1.00
2409;DHT22;8463;48.094;7.970;2023-11-21T10:19:23;9.10;1.00
2409;DHT22;8463;48.094;7.970;2023-11-21T10:21:49;9.00;1.00
2409;DHT22;8463;48.094;7.970;2023-11-21T10:24:16;9.00;1.00
2409;DHT22;8463;48.094;7.970;2023-11-21T10:26:43;9.00;1.00
2409;DHT22;8463;48.094;7.970;2023-11-21T10:29:14;9.10;1.00
2409;DHT22;8463;48.094;7.970;2023-11-21T10:31:42;9.00;1.00
2409;DHT22;8463;48.094;7.970;2023-11-21T10:34:15;8.90;1.00
2409;DHT22;8463;48.094;7.970;2023-11-21T10:39:10;8.70;1.00
2409;DHT22;8463;48.094;7.970;2023-11-21T10:41:38;8.60;1.00
2409;DHT22;8463;48.094;7.970;2023-11-21T10:44:07;8.60;1.00
2409;DHT22;8463;48.094;7.970;2023-11-21T10:46:34;8.60;1.00
2409;DHT22;8463;48.094;7.970;2023-11-21T10:51:27;8.80;1.00
2409;DHT22;8463;48.094;7.970;2023-11-21T10:56:23;8.60;1.00
2409;DHT22;8463;48.094;7.970;2023-11-21T10:58:50;8.70;1.00
2409;DHT22;8463;48.094;7.970;2023-11-21T11:01:19;8.70;1.00
2409;DHT22;8463;48.094;7.970;2023-11-21T11:03:47;8.60;1.00
2409;DHT22;8463;48.094;7.970;2023-11-21T11:06:13;8.60;1.00
2409;DHT22;8463;48.094;7.970;2023-11-21T11:08:40;8.60;1.00
2409;DHT22;8463;48.094;7.970;2023-11-21T11:11:07;8.70;1.00
2409;DHT22;8463;48.094;7.970;2023-11-21T11:13:33;8.70;1.00
2409;DHT22;8463;48.094;7.970;2023-11-21T11:16:00;8.70;1.00
2409;DHT22;8463;48.094;7.970;2023-11-21T11:18:29;8.80;1.00
2409;DHT22;8463;48.094;7.970;2023-11-21T11:21:07;8.70;1.00
2409;DHT22;8463;48.094;7.970;2023-11-21T11:26:47;8.70;1.00
2409;DHT22;8463;48.094;7.970;2023-11-21T11:32:21;8.60;1.00
2409;DHT22;8463;48.094;7.970;2023-11-21T11:35:04;8.50;1.00
2409;DHT22;8463;48.094;7.970;2023-11-21T11:37:32;8.50;1.00
2409;DHT22;8463;48.094;7.970;2023-11-21T11:39:58;8.40;1.00
2409;DHT22;8463;48.094;7.970;2023-11-21T11:42:26;8.50;1.00
2409;DHT22;8463;48.094;7.970;2023-11-21T11:44:52;8.50;1.00
2409;DHT22;8463;48.094;7.970;2023-11-21T11:47:20;8.50;1.00
2409;DHT22;8463;48.094;7.970;2023-11-21T11:52:37;8.50;1.00
2409;DHT22;8463;48.094;7.970;2023-11-21T11:55:06;8.50;1.00
2409;DHT22;8463;48.094;7.970;2023-11-21T11:57:34;8.50;1.00
2409;DHT22;8463;48.094;7.970;2023-11-21T12:02:37;8.50;1.00
2409;DHT22;8463;48.094;7.970;2023-11-21T12:05:14;8.50;1.00
2409;DHT22;8463;48.094;7.970;2023-11-21T12:07:55;8.50;1.00
2409;DHT22;8463;48.094;7.970;2023-11-21T12:10:26;8.60;1.00
2409;DHT22;8463;48.094;7.970;2023-11-21T12:12:56;8.50;1.00
2409;DHT22;8463;48.094;7.970;2023-11-21T12:15:22;8.50;1.00
2409;DHT22;8463;48.094;7.970;2023-11-21T12:17:49;8.50;1.00
2409;DHT22;8463;48.094;7.970;2023-11-21T12:20:19;8.60;1.00
2409;DHT22;8463;48.094;7.970;2023-11-21T12:22:53;8.60;1.00
2409;DHT22;8463;48.094;7.970;2023-11-21T12:25:24;8.60;1.00
2409;DHT22;8463;48.094;7.970;2023-11-21T12:27:51;8.60;1.00
2409;DHT22;8463;48.094;7.970;2023-11-21T12:30:19;8.60;1.00
2409;DHT22;8463;48.094;7.970;2023-11-21T12:32:48;8.70;1.00
2409;DHT22;8463;48.094;7.970;2023-11-21T12:35:14;8.70;1.00
2409;DHT22;8463;48.094;7.970;2023-11-21T12:37:42;8.80;1.00
2409;DHT22;8463;48.094;7.970;2023-11-21T12:40:09;8.90;1.00
2409;DHT22;8463;48.094;7.970;2023-11-21T12:42:41;8.90;1.00
2409;DHT22;8463;48.094;7.970;2023-11-21T12:50:12;9.00;1.00
2409;DHT22;8463;48.094;7.970;2023-11-21T12:52:44;9.10;1.00
2409;DHT22;8463;48.094;7.970;2023-11-21T12:55:15;9.20;1.00
2409;DHT22;8463;48.094;7.970;2023-11-21T12:57:45;9.20;1.00
2409;DHT22;8463;48.094;7.970;2023-11-21T13:00:12;9.30;1.00
2409;DHT22;8463;48.094;7.970;2023-11-21T13:02:50;9.40;1.00
2409;DHT22;8463;48.094;7.970;2023-11-21T13:05:27;9.40;1.00
2409;DHT22;8463;48.094;7.970;2023-11-21T13:07:54;9.30;1.00
2409;DHT22;8463;48.094;7.970;2023-11-21T13:10:26;9.30;1.00
2409;DHT22;8463;48.094;7.970;2023-11-21T13:12:55;9.20;1.00
2409;DHT22;8463;48.094;7.970;2023-11-21T13:15:24;9.30;1.00
2409;DHT22;8463;48.094;7.970;2023-11-21T13:17:52;9.40;1.00
2409;DHT22;8463;48.094;7.970;2023-11-21T13:25:15;9.40;1.00
2409;DHT22;8463;48.094;7.970;2023-11-21T13:30:10;9.40;1.00
2409;DHT22;8463;48.094;7.970;2023-11-21T13:32:36;9.30;1.00
2409;DHT22;8463;48.094;7.970;2023-11-21T13:35:02;9.40;1.00
2409;DHT22;8463;48.094;7.970;2023-11-21T13:37:27;9.50;1.00
2409;DHT22;8463;48.094;7.970;2023-11-21T13:39:53;9.40;1.00
2409;DHT22;8463;48.094;7.970;2023-11-21T13:42:20;9.60;1.00
2409;DHT22;8463;48.094;7.970;2023-11-21T13:44:56;9.60;1.00
2409;DHT22;8463;48.094;7.970;2023-11-21T13:47:22;9.60;1.00
2409;DHT22;8463;48.094;7.970;2023-11-21T13:49:51;9.60;1.00
2409;DHT22;8463;48.094;7.970;2023-11-21T13:52:16;9.60;1.00
2409;DHT22;8463;48.094;7.970;2023-11-21T13:57:10;9.70;1.00
2409;DHT22;8463;48.094;7.970;2023-11-21T13:59:36;9.70;1.00
2409;DHT22;8463;48.094;7.970;2023-11-21T14:02:02;9.80;1.00
2409;DHT22;8463;48.094;7.970;2023-11-21T14:04:45;9.80;1.00
2409;DHT22;8463;48.094;7.970;2023-11-21T14:07:33;9.80;1.00
2409;DHT22;8463;48.094;7.970;2023-11-21T14:10:03;9.80;1.00
2409;DHT22;8463;48.094;7.970;2023-11-21T14:12:29;9.80;1.00
2409;DHT22;8463;48.094;7.970;2023-11-21T14:14:59;10.70;1.00
2409;DHT22;8463;48.094;7.970;2023-11-21T14:17:25;9.90;1.00
2409;DHT22;8463;48.094;7.970;2023-11-21T14:19:51;9.80;1.00
2409;DHT22;8463;48.094;7.970;2023-11-21T14:24:42;9.80;1.00
2409;DHT22;8463;48.094;7.970;2023-11-21T14:27:15;9.80;1.00
2409;DHT22;8463;48.094;7.970;2023-11-21T14:29:40;9.80;1.00
2409;DHT22;8463;48.094;7.970;2023-11-21T14:34:35;9.80;1.00
2409;DHT22;8463;48.094;7.970;2023-11-21T14:37:02;9.80;1.00
2409;DHT22;8463;48.094;7.970;2023-11-21T14:39:30;9.80;1.00
2409;DHT22;8463;48.094;7.970;2023-11-21T14:42:00;9.80;1.00
2409;DHT22;8463;48.094;7.970;2023-11-21T14:44:28;9.80;1.00
2409;DHT22;8463;48.094;7.970;2023-11-21T14:46:58;9.80;1.00
2409;DHT22;8463;48.094;7.970;2023-11-21T14:49:24;9.70;1.00
2409;DHT22;8463;48.094;7.970;2023-11-21T14:51:53;9.70;1.00
2409;DHT22;8463;48.094;7.970;2023-11-21T14:54:29;9.70;1.00
2409;DHT22;8463;48.094;7.970;2023-11-21T14:57:14;9.70;1.00
2409;DHT22;8463;48.094;7.970;2023-11-21T14:59:47;9.70;1.00
2409;DHT22;8463;48.094;7.970;2023-11-21T15:02:20;9.70;1.00
2409;DHT22;8463;48.094;7.970;2023-11-21T15:04:48;9.80;1.00
2409;DHT22;8463;48.094;7.970;2023-11-21T15:07:17;9.70;1.00
2409;DHT22;8463;48.094;7.970;2023-11-21T15:09:43;9.70;1.00
2409;DHT22;8463;48.094;7.970;2023-11-21T15:12:13;9.70;1.00
2409;DHT22;8463;48.094;7.970;2023-11-21T15:14:49;9.70;1.00
2409;DHT22;8463;48.094;7.970;2023-11-21T15:17:18;9.70;1.00
2409;DHT22;8463;48.094;7.970;2023-11-21T15:19:49;9.70;1.00
2409;DHT22;8463;48.094;7.970;2023-11-21T15:22:16;9.60;1.00
2409;DHT22;8463;48.094;7.970;2023-11-21T15:24:42;9.50;1.00
2409;DHT22;8463;48.094;7.970;2023-11-21T15:27:11;9.50;1.00
2409;DHT22;8463;48.094;7.970;2023-11-21T15:29:38;9.40;1.00
2409;DHT22;8463;48.094;7.970;2023-11-21T15:32:04;9.30;1.00
2409;DHT22;8463;48.094;7.970;2023-11-21T15:34:31;9.30;1.00
2409;DHT22;8463;48.094;7.970;2023-11-21T15:39:24;9.30;1.00
2409;DHT22;8463;48.094;7.970;2023-11-21T15:41:54;9.20;1.00
2409;DHT22;8463;48.094;7.970;2023-11-21T15:44:20;9.30;1.00
2409;DHT22;8463;48.094;7.970;2023-11-21T15:46:45;9.30;1.00
2409;DHT22;8463;48.094;7.970;2023-11-21T15:49:11;9.30;1.00
2409;DHT22;8463;48.094;7.970;2023-11-21T15:51:39;9.30;1.00
2409;DHT22;8463;48.094;7.970;2023-11-21T15:54:07;9.30;1.00
2409;DHT22;8463;48.094;7.970;2023-11-21T15:56:33;9.30;1.00
2409;DHT22;8463;48.094;7.970;2023-11-21T15:59:00;9.30;1.00
2409;DHT22;8463;48.094;7.970;2023-11-21T16:01:26;9.30;1.00
2409;DHT22;8463;48.094;7.970;2023-11-21T16:03:52;9.20;1.00
2409;DHT22;8463;48.094;7.970;2023-11-21T16:06:19;9.30;1.00
2409;DHT22;8463;48.094;7.970;2023-11-21T16:08:45;9.30;1.00
2409;DHT22;8463;48.094;7.970;2023-11-21T16:11:11;9.20;1.00
2409;DHT22;8463;48.094;7.970;2023-11-21T16:13:36;9.20;1.00
2409;DHT22;8463;48.094;7.970;2023-11-21T16:16:04;9.20;1.00
2409;DHT22;8463;48.094;7.970;2023-11-21T16:18:30;9.20;1.00
2409;DHT22;8463;48.094;7.970;2023-11-21T16:20:56;9.20;1.00
2409;DHT22;8463;48.094;7.970;2023-11-21T16:23:22;9.10;1.00
2409;DHT22;8463;48.094;7.970;2023-11-21T16:25:47;8.90;1.00
2409;DHT22;8463;48.094;7.970;2023-11-21T16:28:21;8.90;1.00
2409;DHT22;8463;48.094;7.970;2023-11-21T16:30:48;8.90;1.00
2409;DHT22;8463;48.094;7.970;2023-11-21T16:35:39;8.90;1.00
2409;DHT22;8463;48.094;7.970;2023-11-21T16:38:07;8.90;1.00
2409;DHT22;8463;48.094;7.970;2023-11-21T16:40:33;8.80;1.00
2409;DHT22;8463;48.094;7.970;2023-11-21T16:42:59;8.80;1.00
2409;DHT22;8463;48.094;7.970;2023-11-21T16:45:24;8.80;1.00
2409;DHT22;8463;48.094;7.970;2023-11-21T16:47:50;8.80;1.00
2409;DHT22;8463;48.094;7.970;2023-11-21T16:50:16;8.70;1.00
2409;DHT22;8463;48.094;7.970;2023-11-21T16:52:42;8.70;1.00
2409;DHT22;8463;48.094;7.970;2023-11-21T16:55:09;8.80;1.00
2409;DHT22;8463;48.094;7.970;2023-11-21T16:57:38;8.70;1.00
2409;DHT22;8463;48.094;7.970;2023-11-21T17:00:05;8.90;1.00
2409;DHT22;8463;48.094;7.970;2023-11-21T17:02:37;8.90;1.00
2409;DHT22;8463;48.094;7.970;2023-11-21T17:05:03;8.90;1.00
2409;DHT22;8463;48.094;7.970;2023-11-21T17:07:30;8.90;1.00
2409;DHT22;8463;48.094;7.970;2023-11-21T17:09:57;8.90;1.00
2409;DHT22;8463;48.094;7.970;2023-11-21T17:12:22;8.90;1.00
2409;DHT22;8463;48.094;7.970;2023-11-21T17:14:48;8.80;1.00
2409;DHT22;8463;48.094;7.970;2023-11-21T17:17:14;8.90;1.00
2409;DHT22;8463;48.094;7.970;2023-11-21T17:19:40;8.80;1.00
2409;DHT22;8463;48.094;7.970;2023-11-21T17:22:06;8.80;1.00
2409;DHT22;8463;48.094;7.970;2023-11-21T17:24:32;8.80;1.00
2409;DHT22;8463;48.094;7.970;2023-11-21T17:26:59;8.90;1.00
2409;DHT22;8463;48.094;7.970;2023-11-21T17:29:25;8.90;1.00
2409;DHT22;8463;48.094;7.970;2023-11-21T17:31:54;8.90;1.00
2409;DHT22;8463;48.094;7.970;2023-11-21T17:34:19;9.00;1.00
2409;DHT22;8463;48.094;7.970;2023-11-21T17:36:45;9.00;1.00
2409;DHT22;8463;48.094;7.970;2023-11-21T17:39:11;8.80;1.00
2409;DHT22;8463;48.094;7.970;2023-11-21T17:41:37;8.80;1.00
2409;DHT22;8463;48.094;7.970;2023-11-21T17:44:03;8.80;1.00
2409;DHT22;8463;48.094;7.970;2023-11-21T17:46:29;8.80;1.00
2409;DHT22;8463;48.094;7.970;2023-11-21T17:48:55;8.80;1.00
2409;DHT22;8463;48.094;7.970;2023-11-21T17:51:22;8.80;1.00
2409;DHT22;8463;48.094;7.970;2023-11-21T17:53:48;8.80;1.00
2409;DHT22;8463;48.094;7.970;2023-11-21T17:56:18;8.90;1.00
2409;DHT22;8463;48.094;7.970;2023-11-21T17:58:45;8.90;1.00
2409;DHT22;8463;48.094;7.970;2023-11-21T18:01:10;8.90;1.00
2409;DHT22;8463;48.094;7.970;2023-11-21T18:03:36;8.80;1.00
2409;DHT22;8463;48.094;7.970;2023-11-21T18:06:03;8.90;1.00
2409;DHT22;8463;48.094;7.970;2023-11-21T18:08:29;8.80;1.00
2409;DHT22;8463;48.094;7.970;2023-11-21T18:10:55;8.80;1.00
2409;DHT22;8463;48.094;7.970;2023-11-21T18:15:48;8.80;1.00
2409;DHT22;8463;48.094;7.970;2023-11-21T18:18:14;8.80;1.00
2409;DHT22;8463;48.094;7.970;2023-11-21T18:20:40;8.90;1.00
2409;DHT22;8463;48.094;7.970;2023-11-21T18:23:06;8.90;1.00
2409;DHT22;8463;48.094;7.970;2023-11-21T18:25:32;8.90;1.00
2409;DHT22;8463;48.094;7.970;2023-11-21T18:27:58;9.00;1.00
2409;DHT22;8463;48.094;7.970;2023-11-21T18:30:24;9.00;1.00
2409;DHT22;8463;48.094;7.970;2023-11-21T18:32:50;9.00;1.00